Time;durP1;ratioP1;P1;durP2;ratioP2;P2;SDS_P1;SDS_P2;PMS_P1;PMS_P2;Temp;Humidity;BMP_temperature;BMP_pressure;BME280_temperature;BME280_humidity;BME280_pressure;Samples;Min_cycle;Max_cycle;Signal;HPM_P1;HPM_P2
2022/08/25 00:04:12;;;;;;;21.10;10.75;;;;;;;18.80;100.00;99784.23;1833596;77;26823;-69
2022/08/25 00:06:41;;;;;;;23.87;10.75;;;;;;;18.72;100.00;99783.56;1805295;78;21532;-69
2022/08/25 00:09:08;;;;;;;18.77;10.43;;;;;;;18.64;100.00;99780.44;1816459;78;26663;-69
2022/08/25 00:11:37;;;;;;;21.52;10.75;;;;;;;18.58;100.00;99777.55;1819848;78;21604;-68
2022/08/25 00:14:08;;;;;;;17.12;10.45;;;;;;;18.49;100.00;99790.78;1819712;78;20873;-69
2022/08/25 00:16:35;;;;;;;20.88;11.65;;;;;;;18.43;100.00;99788.72;1819742;78;20865;-68
2022/08/25 00:19:07;;;;;;;20.20;10.63;;;;;;;18.38;100.00;99785.54;1819845;78;20940;-68
2022/08/25 00:21:34;;;;;;;22.80;11.22;;;;;;;18.33;100.00;99792.98;1819887;78;21249;-68
2022/08/25 00:24:03;;;;;;;16.32;10.28;;;;;;;18.30;100.00;99788.13;1819779;78;20917;-66
2022/08/25 00:26:30;;;;;;;22.58;12.15;;;;;;;18.27;100.00;99787.37;1820139;78;20944;-68
2022/08/25 00:28:57;;;;;;;20.35;11.15;;;;;;;18.22;100.00;99782.84;1819764;78;20932;-68
2022/08/25 00:31:23;;;;;;;20.45;11.40;;;;;;;18.16;100.00;99785.41;1820079;78;21477;-68
2022/08/25 00:33:50;;;;;;;18.87;11.35;;;;;;;18.14;100.00;99785.69;1819843;78;21147;-69
2022/08/25 00:36:18;;;;;;;23.57;12.13;;;;;;;18.14;100.00;99784.89;1820033;78;20928;-69
2022/08/25 00:38:47;;;;;;;21.83;10.90;;;;;;;18.08;100.00;99784.19;1819980;78;21856;-69
2022/08/25 00:41:19;;;;;;;21.25;12.10;;;;;;;18.05;100.00;99786.67;1819645;78;20964;-68
2022/08/25 00:43:57;;;;;;;24.15;10.63;;;;;;;18.02;100.00;99788.08;1819813;78;20916;-67
2022/08/25 00:46:47;;;;;;;20.10;10.85;;;;;;;17.96;100.00;99789.28;1819827;78;21953;-69
2022/08/25 00:49:36;;;;;;;23.55;11.12;;;;;;;17.88;100.00;99789.38;1819888;78;20865;-68
2022/08/25 00:52:17;;;;;;;24.67;12.40;;;;;;;17.83;100.00;99790.02;1819898;78;21498;-69
2022/08/25 00:54:57;;;;;;;22.87;10.03;;;;;;;17.81;100.00;99789.50;1819687;78;20913;-68
2022/08/25 00:57:28;;;;;;;33.13;11.08;;;;;;;17.72;100.00;99783.92;1819629;78;20904;-69
2022/08/25 00:59:55;;;;;;;20.70;11.40;;;;;;;17.67;100.00;99784.00;1819930;78;21104;-69
2022/08/25 01:02:22;;;;;;;15.30;9.78;;;;;;;17.67;100.00;99788.08;1820110;78;20869;-68
2022/08/25 01:04:50;;;;;;;15.68;10.08;;;;;;;17.62;100.00;99782.73;1819764;78;20917;-69
2022/08/25 01:07:18;;;;;;;22.95;10.60;;;;;;;17.66;100.00;99783.73;1819725;78;21536;-68
2022/08/25 01:09:46;;;;;;;18.98;9.95;;;;;;;17.72;100.00;99782.01;1820007;78;20858;-70
2022/08/25 01:12:13;;;;;;;19.60;9.55;;;;;;;17.71;100.00;99776.86;1819825;78;21533;-70
2022/08/25 01:14:40;;;;;;;21.02;10.63;;;;;;;17.70;100.00;99776.06;1819229;78;20873;-69
2022/08/25 01:17:08;;;;;;;18.10;11.40;;;;;;;17.70;100.00;99777.42;1806018;78;20909;-68
2022/08/25 01:19:35;;;;;;;16.62;10.72;;;;;;;17.71;100.00;99780.41;1819521;79;20912;-69
2022/08/25 01:22:04;;;;;;;21.12;10.60;;;;;;;17.68;100.00;99772.83;1819631;79;20873;-69
2022/08/25 01:24:58;;;;;;;20.35;11.50;;;;;;;17.66;100.00;99770.95;1819375;79;21186;-67
2022/08/25 01:27:24;;;;;;;25.95;11.45;;;;;;;17.63;100.00;99770.20;1819731;78;21430;-70
2022/08/25 01:29:51;;;;;;;21.95;10.95;;;;;;;17.56;100.00;99779.27;1819430;79;21418;-68
2022/08/25 01:32:18;;;;;;;27.60;12.43;;;;;;;17.53;100.00;99779.30;1819487;79;20925;-68
2022/08/25 01:34:46;;;;;;;26.80;12.25;;;;;;;17.49;100.00;99770.69;1819797;79;20995;-68
2022/08/25 01:37:14;;;;;;;20.37;11.95;;;;;;;17.46;100.00;99778.06;1819526;79;22157;-69
2022/08/25 01:39:42;;;;;;;25.65;12.43;;;;;;;17.38;100.00;99774.11;1819418;79;20914;-68
2022/08/25 01:42:20;;;;;;;22.80;13.35;;;;;;;17.31;100.00;99773.66;1819557;79;20912;-68
2022/08/25 01:44:47;;;;;;;27.45;13.55;;;;;;;17.27;100.00;99776.70;1819713;78;20967;-70
2022/08/25 01:47:14;;;;;;;23.98;12.93;;;;;;;17.27;100.00;99772.63;1819440;79;20837;-68
2022/08/25 01:49:42;;;;;;;25.00;13.80;;;;;;;17.28;100.00;99774.27;1820061;78;21072;-70
2022/08/25 01:52:22;;;;;;;33.33;16.93;;;;;;;17.30;100.00;99776.94;1819752;79;20972;-69
2022/08/25 01:54:49;;;;;;;29.90;14.85;;;;;;;17.29;100.00;99783.44;1819483;79;20956;-68
2022/08/25 01:57:16;;;;;;;29.63;15.93;;;;;;;17.24;100.00;99780.80;1819500;79;20877;-68
2022/08/25 01:59:43;;;;;;;28.02;15.03;;;;;;;17.22;100.00;99780.31;1819580;79;21450;-70
2022/08/25 02:02:10;;;;;;;32.20;16.07;;;;;;;17.16;100.00;99782.02;1819649;79;21251;-70
2022/08/25 02:04:38;;;;;;;25.20;16.05;;;;;;;17.04;100.00;99785.16;1819409;79;20921;-70
2022/08/25 02:07:07;;;;;;;37.58;17.32;;;;;;;16.98;100.00;99789.84;1819678;79;20837;-69
2022/08/25 02:09:35;;;;;;;36.42;17.80;;;;;;;16.92;100.00;99787.72;1819674;78;20920;-70
2022/08/25 02:12:03;;;;;;;;;;;;;;;16.89;100.00;99788.30;1822228;79;20830;-69
2022/08/25 02:14:30;;;;;;;37.85;18.30;;;;;;;16.89;100.00;99784.24;1819850;78;21118;-70
2022/08/25 02:16:56;;;;;;;31.48;18.75;;;;;;;16.88;100.00;99778.58;1819431;79;20947;-69
2022/08/25 02:19:24;;;;;;;34.40;18.45;;;;;;;16.87;100.00;99784.27;1819403;79;20965;-70
2022/08/25 02:21:52;;;;;;;32.53;17.60;;;;;;;16.88;100.00;99779.93;1819531;79;21459;-69
2022/08/25 02:24:18;;;;;;;37.87;19.60;;;;;;;16.86;100.00;99777.25;1819645;78;20933;-69
2022/08/25 02:26:45;;;;;;;36.88;20.12;;;;;;;16.81;100.00;99769.98;1819590;79;21222;-68
2022/08/25 02:29:12;;;;;;;34.55;19.57;;;;;;;16.76;100.00;99767.86;1819475;79;20862;-69
2022/08/25 02:31:39;;;;;;;34.92;21.05;;;;;;;16.67;100.00;99779.87;1819519;79;21470;-69
2022/08/25 02:34:07;;;;;;;39.15;21.48;;;;;;;16.59;100.00;99777.81;1819497;79;21584;-69
2022/08/25 02:36:34;;;;;;;38.45;22.13;;;;;;;16.47;100.00;99776.84;1819518;79;20917;-69
2022/08/25 02:39:01;;;;;;;40.90;22.32;;;;;;;16.39;100.00;99772.87;1819442;79;21276;-68
2022/08/25 02:41:29;;;;;;;50.00;23.70;;;;;;;16.34;100.00;99769.38;1819604;79;21453;-70
2022/08/25 02:43:55;;;;;;;40.03;22.13;;;;;;;16.26;100.00;99772.97;1819572;79;21431;-69
2022/08/25 02:46:23;;;;;;;45.12;22.60;;;;;;;16.19;100.00;99775.23;1819354;79;21426;-68
2022/08/25 02:48:52;;;;;;;38.88;22.52;;;;;;;16.13;100.00;99772.30;1819472;79;20933;-69
2022/08/25 02:51:21;;;;;;;37.42;20.65;;;;;;;16.06;100.00;99776.68;1819653;79;21320;-69
2022/08/25 02:53:48;;;;;;;44.15;22.20;;;;;;;16.02;100.00;99769.41;1819612;78;20981;-69
2022/08/25 02:56:17;;;;;;;55.55;23.87;;;;;;;15.98;100.00;99773.25;1819452;79;20875;-68
2022/08/25 02:58:44;;;;;;;47.80;23.47;;;;;;;15.92;100.00;99773.02;1819606;78;20977;-69
2022/08/25 03:01:12;;;;;;;47.23;22.20;;;;;;;15.92;100.00;99778.42;1819608;79;20873;-68
2022/08/25 03:03:40;;;;;;;42.98;20.82;;;;;;;15.95;100.00;99776.53;1819542;79;21252;-69
2022/08/25 03:06:08;;;;;;;39.83;20.17;;;;;;;15.98;100.00;99771.89;1819741;78;20936;-69
2022/08/25 03:08:36;;;;;;;36.95;20.90;;;;;;;15.98;100.00;99778.66;1819325;79;21011;-69
2022/08/25 03:11:04;;;;;;;37.17;18.05;;;;;;;15.99;100.00;99779.46;1819410;79;20918;-70
2022/08/25 03:13:31;;;;;;;37.00;19.00;;;;;;;15.97;100.00;99777.58;1819581;79;20947;-68
2022/08/25 03:16:00;;;;;;;35.45;19.05;;;;;;;15.98;100.00;99780.56;1819621;79;21235;-69
2022/08/25 03:18:27;;;;;;;32.65;18.65;;;;;;;16.03;100.00;99779.97;1818497;79;20964;-68
2022/08/25 03:20:53;;;;;;;34.18;18.10;;;;;;;16.02;100.00;99777.01;1819663;79;21427;-70
2022/08/25 03:23:20;;;;;;;37.60;17.25;;;;;;;16.08;100.00;99776.41;1819499;79;21458;-71
2022/08/25 03:28:32;;;;;;;30.68;17.17;;;;;;;16.19;100.00;99771.69;1819428;79;21222;-70
2022/08/25 03:31:00;;;;;;;32.28;15.63;;;;;;;16.27;100.00;99763.77;1819265;79;20866;-69
2022/08/25 03:33:27;;;;;;;30.50;16.67;;;;;;;16.35;100.00;99769.11;1819774;79;20917;-70
2022/08/25 03:35:55;;;;;;;28.52;15.98;;;;;;;16.46;100.00;99768.44;1819731;78;20837;-70
2022/08/25 03:38:24;;;;;;;34.60;18.40;;;;;;;16.58;100.00;99777.53;1819719;79;20865;-69
2022/08/25 03:40:51;;;;;;;30.92;15.78;;;;;;;16.64;100.00;99775.04;1819296;79;21161;-70
2022/08/25 03:43:19;;;;;;;30.67;16.03;;;;;;;16.74;100.00;99771.41;1819506;79;20909;-70
2022/08/25 03:45:46;;;;;;;37.87;17.37;;;;;;;16.79;100.00;99764.59;1819839;79;20857;-69
2022/08/25 03:48:14;;;;;;;44.03;17.45;;;;;;;16.93;100.00;99774.44;1819625;79;20928;-70
2022/08/25 03:50:49;;;;;;;32.63;16.55;;;;;;;17.06;100.00;99766.14;1819468;79;20909;-69
2022/08/25 03:53:16;;;;;;;37.38;15.72;;;;;;;17.17;100.00;99767.35;1819293;79;21229;-70
2022/08/25 03:55:43;;;;;;;33.60;15.65;;;;;;;17.26;100.00;99774.54;1819235;79;20880;-69
2022/08/25 03:58:09;;;;;;;37.35;14.83;;;;;;;17.40;100.00;99777.90;1819431;79;21477;-69
2022/08/25 04:00:36;;;;;;;28.07;14.70;;;;;;;17.54;100.00;99768.72;1819366;79;21501;-68
2022/08/25 04:03:03;;;;;;;33.63;13.68;;;;;;;17.70;100.00;99769.83;1819380;79;20869;-68
2022/08/25 04:05:30;;;;;;;31.33;14.05;;;;;;;17.87;100.00;99777.47;1819445;79;21970;-70
2022/08/25 04:07:57;;;;;;;23.90;13.00;;;;;;;18.01;100.00;99771.53;1819323;79;20904;-68
2022/08/25 04:10:24;;;;;;;26.77;12.75;;;;;;;18.13;100.00;99773.22;1819315;79;20893;-69
2022/08/25 04:12:52;;;;;;;;;;;;;;;18.29;100.00;99775.10;1822007;79;21399;-68
2022/08/25 04:15:19;;;;;;;19.05;10.65;;;;;;;18.41;100.00;99773.27;1819745;79;20090;-69
2022/08/25 04:17:46;;;;;;;17.27;10.90;;;;;;;18.56;100.00;99766.17;1819529;79;21267;-69
2022/08/25 04:20:14;;;;;;;23.62;11.55;;;;;;;18.75;100.00;99773.44;1819419;79;20865;-68
2022/08/25 04:22:41;;;;;;;28.55;10.95;;;;;;;18.92;100.00;99769.57;1819455;79;20872;-69
2022/08/25 04:25:09;;;;;;;19.05;10.10;;;;;;;19.18;100.00;99763.04;1819613;79;21442;-69
2022/08/25 04:27:36;;;;;;;;;;;;;;;19.18;100.00;99763.04;1822191;79;20928;-69
2022/08/25 04:30:05;;;;;;;22.27;11.90;;;;;;;19.32;100.00;99764.91;1819754;79;21173;-70
2022/08/25 04:32:32;;;;;;;25.57;12.35;;;;;;;19.42;100.00;99764.11;1819330;79;20861;-69
2022/08/25 04:34:59;;;;;;;25.62;12.45;;;;;;;19.55;100.00;99760.28;1819233;79;20980;-70
2022/08/25 04:37:26;;;;;;;21.65;12.37;;;;;;;19.71;100.00;99764.30;1819501;79;20924;-70
2022/08/25 04:39:52;;;;;;;20.75;11.03;;;;;;;19.89;100.00;99761.95;1819404;79;20904;-70
2022/08/25 04:42:20;;;;;;;34.13;12.28;;;;;;;20.06;100.00;99764.52;1819393;79;21521;-69
2022/08/25 04:44:48;;;;;;;23.85;11.08;;;;;;;20.17;100.00;99760.42;1819387;79;21003;-70
2022/08/25 04:47:15;;;;;;;21.52;11.73;;;;;;;20.32;100.00;99764.66;1819434;79;20861;-67
2022/08/25 04:49:42;;;;;;;15.23;9.60;;;;;;;20.46;100.00;99764.01;1799440;79;21401;-70
2022/08/25 04:52:09;;;;;;;21.97;10.10;;;;;;;20.63;100.00;99760.58;1822519;78;21003;-71
2022/08/25 04:54:36;;;;;;;17.70;10.75;;;;;;;20.68;100.00;99759.63;1807560;78;21257;-71
2022/08/25 04:57:04;;;;;;;22.75;10.85;;;;;;;20.79;100.00;99762.86;1819534;79;21391;-69
2022/08/25 04:59:31;;;;;;;21.93;11.75;;;;;;;21.00;100.00;99758.99;1819535;79;20913;-70
2022/08/25 05:02:01;;;;;;;27.50;12.10;;;;;;;21.06;100.00;99753.61;1781064;78;21491;-68
2022/08/25 05:04:27;;;;;;;25.85;12.20;;;;;;;21.11;100.00;99758.91;1820087;78;21509;-70
2022/08/25 05:06:56;;;;;;;24.87;13.55;;;;;;;21.35;100.00;99755.73;1819506;79;21245;-69
2022/08/25 05:09:24;;;;;;;28.87;13.47;;;;;;;21.47;100.00;99761.95;1819814;79;21034;-69
2022/08/25 05:11:51;;;;;;;24.07;14.63;;;;;;;21.60;100.00;99760.97;1819863;78;20940;-69
2022/08/25 05:14:21;;;;;;;27.77;15.35;;;;;;;21.88;100.00;99753.78;1819378;79;21522;-68
2022/08/25 05:16:46;;;;;;;26.25;15.43;;;;;;;22.02;100.00;99754.40;1819295;79;20849;-67
2022/08/25 05:19:13;;;;;;;30.12;15.80;;;;;;;22.17;99.43;99753.90;1819551;79;21244;-69
2022/08/25 05:21:40;;;;;;;26.02;15.72;;;;;;;22.18;97.17;99755.48;1819446;79;20980;-70
2022/08/25 05:24:07;;;;;;;27.45;13.28;;;;;;;22.27;96.19;99750.03;1819376;79;21003;-68
2022/08/25 05:26:36;;;;;;;26.52;13.78;;;;;;;22.42;95.16;99754.95;1819626;79;20916;-69
2022/08/25 05:29:04;;;;;;;26.20;13.62;;;;;;;22.58;91.13;99752.45;1819563;79;20900;-68
2022/08/25 05:31:31;;;;;;;26.07;13.53;;;;;;;22.71;89.12;99757.48;1819532;79;21337;-69
2022/08/25 05:33:58;;;;;;;27.45;13.58;;;;;;;22.75;89.12;99761.72;1819608;79;20964;-69
2022/08/25 05:36:26;;;;;;;27.30;13.77;;;;;;;22.95;86.78;99757.42;1819652;79;20885;-69
2022/08/25 05:38:53;;;;;;;;;;;;;;;23.03;86.76;99760.72;1822539;78;21398;-68
2022/08/25 05:41:23;;;;;;;20.90;11.00;;;;;;;23.24;83.09;99760.14;1819528;79;20463;-70
2022/08/25 05:43:50;;;;;;;19.65;10.63;;;;;;;23.31;81.75;99754.94;1819544;78;21110;-68
2022/08/25 05:46:18;;;;;;;20.32;11.83;;;;;;;23.29;80.37;99755.83;1819585;79;20916;-70
2022/08/25 05:48:45;;;;;;;;;;;;;;;23.45;81.82;99757.98;1822485;78;21421;-69
2022/08/25 05:51:12;;;;;;;16.62;10.20;;;;;;;23.61;78.79;99752.11;1819607;79;20474;-70
2022/08/25 05:53:42;;;;;;;18.82;10.23;;;;;;;23.75;76.77;99749.13;1819770;79;20920;-71
2022/08/25 05:56:10;;;;;;;29.65;10.08;;;;;;;23.72;75.65;99751.94;1819356;79;21299;-69
2022/08/25 05:58:37;;;;;;;16.27;10.35;;;;;;;23.76;74.99;99753.45;1819426;79;20956;-69
2022/08/25 06:03:53;;;;;;;28.80;10.55;;;;;;;24.01;73.36;99755.72;1819396;79;20912;-68
2022/08/25 06:06:20;;;;;;;22.25;10.03;;;;;;;24.29;72.29;99753.70;1819355;79;20923;-70
2022/08/25 06:08:47;;;;;;;23.83;11.38;;;;;;;24.51;72.11;99760.16;1819688;78;21170;-69
2022/08/25 06:11:15;;;;;;;20.00;10.60;;;;;;;24.76;69.80;99759.58;1819465;79;20865;-70
2022/08/25 06:13:42;;;;;;;14.80;9.58;;;;;;;24.94;67.38;99755.21;1819479;79;21407;-73
2022/08/25 06:16:08;;;;;;;24.72;10.15;;;;;;;25.11;66.25;99756.91;1819329;79;21485;-71
2022/08/25 06:18:35;;;;;;;29.67;12.10;;;;;;;25.29;65.12;99765.15;1819837;79;20830;-69
2022/08/25 06:21:12;;;;;;;20.43;11.17;;;;;;;25.37;64.23;99761.45;1819856;79;21870;-69
2022/08/25 06:23:39;;;;;;;21.57;9.15;;;;;;;25.44;66.39;99762.24;1819585;78;20940;-71
2022/08/25 06:26:05;;;;;;;17.75;10.20;;;;;;;25.72;65.76;99759.48;1819802;79;21447;-70
2022/08/25 06:28:32;;;;;;;15.40;10.13;;;;;;;25.67;66.00;99765.23;1819744;79;21390;-71
2022/08/25 06:31:00;;;;;;;15.93;9.80;;;;;;;25.87;65.44;99762.08;1819742;79;20976;-69
2022/08/25 06:33:27;;;;;;;23.00;9.88;;;;;;;26.14;64.14;99765.14;1819441;79;21190;-70
2022/08/25 06:35:55;;;;;;;18.70;9.83;;;;;;;26.30;64.10;99768.13;1819550;79;21454;-70
2022/08/25 06:38:22;;;;;;;19.75;9.50;;;;;;;26.34;61.53;99764.69;1819449;79;21419;-69
2022/08/25 06:40:50;;;;;;;26.93;10.38;;;;;;;26.52;62.10;99765.34;1819456;79;22979;-68
2022/08/25 06:43:19;;;;;;;19.07;9.60;;;;;;;26.56;60.89;99774.31;1767260;78;21040;-69
2022/08/25 06:45:47;;;;;;;20.08;9.83;;;;;;;26.78;60.40;99764.03;1821556;78;21150;-69
2022/08/25 06:48:14;;;;;;;;;;;;;;;26.93;57.38;99763.19;1823434;78;20901;-69
2022/08/25 06:50:41;;;;;;;15.32;9.13;;;;;;;26.96;55.90;99765.80;1819485;79;20383;-71
2022/08/25 06:53:08;;;;;;;17.05;10.18;;;;;;;26.99;55.83;99768.42;1819651;79;21016;-70
2022/08/25 06:55:35;;;;;;;21.42;9.73;;;;;;;27.18;56.15;99770.42;1819600;79;20909;-69
2022/08/25 06:58:02;;;;;;;82.02;13.95;;;;;;;27.32;54.53;99772.14;1819474;79;21439;-68
2022/08/25 07:00:30;;;;;;;18.70;9.73;;;;;;;27.47;54.83;99771.27;1819356;79;21478;-69
2022/08/25 07:02:57;;;;;;;21.20;13.20;;;;;;;27.61;53.84;99780.98;1819703;78;21007;-70
2022/08/25 07:05:24;;;;;;;23.40;12.03;;;;;;;27.64;53.40;99781.66;1819491;79;20964;-70
2022/08/25 07:07:51;;;;;;;18.80;10.93;;;;;;;27.73;53.74;99778.07;1819791;78;20921;-70
2022/08/25 07:10:18;;;;;;;23.12;11.28;;;;;;;28.09;52.55;99787.06;1819586;79;21240;-69
2022/08/25 07:12:46;;;;;;;22.82;10.82;;;;;;;28.26;51.95;99779.69;1819226;79;21395;-70
2022/08/25 07:15:12;;;;;;;19.80;10.23;;;;;;;28.19;50.55;99780.94;1819538;79;20857;-69
2022/08/25 07:17:39;;;;;;;19.40;10.23;;;;;;;28.19;50.55;99780.94;1812181;78;21641;-68
2022/08/25 07:20:09;;;;;;;31.23;11.68;;;;;;;28.47;49.82;99779.86;1798860;78;20980;-69
2022/08/25 07:22:37;;;;;;;16.57;8.93;;;;;;;28.50;49.53;99774.41;1814097;78;22726;-70
2022/08/25 07:25:05;;;;;;;16.37;9.08;;;;;;;28.43;49.53;99774.27;1801800;79;21399;-69
2022/08/25 07:27:33;;;;;;;17.70;9.00;;;;;;;28.48;49.19;99771.80;1788219;80;20932;-69
2022/08/25 07:29:59;;;;;;;20.82;9.65;;;;;;;28.69;49.69;99769.39;1788150;80;20968;-70
2022/08/25 07:32:26;;;;;;;31.47;10.43;;;;;;;28.83;49.41;99771.56;1787903;80;21494;-69
2022/08/25 07:37:39;;;;;;;18.50;11.10;;;;;;;28.80;48.47;99768.95;1801240;79;20885;-69
2022/08/25 07:40:09;;;;;;;21.93;9.58;;;;;;;28.92;48.91;99764.40;1787101;80;20940;-70
2022/08/25 07:42:36;;;;;;;24.92;11.40;;;;;;;29.19;47.41;99764.61;1787536;80;20889;-70
2022/08/25 07:45:06;;;;;;;22.00;12.47;;;;;;;29.20;47.20;99764.84;1787115;80;20884;-70
2022/08/25 07:47:34;;;;;;;22.85;10.28;;;;;;;29.54;46.21;99769.58;1787071;80;21848;-69
2022/08/25 07:50:01;;;;;;;17.00;9.28;;;;;;;29.75;45.95;99770.47;1787170;80;20936;-69
2022/08/25 07:52:27;;;;;;;16.70;9.55;;;;;;;29.93;45.36;99761.75;1787389;80;21458;-69
2022/08/25 07:54:54;;;;;;;17.45;9.15;;;;;;;29.99;44.08;99765.78;1787354;80;20880;-69
2022/08/25 07:57:23;;;;;;;13.18;8.58;;;;;;;29.95;44.39;99766.33;1787450;80;20884;-71
2022/08/25 07:59:50;;;;;;;18.32;8.63;;;;;;;29.99;43.94;99761.63;1787177;80;21129;-72
2022/08/25 08:02:16;;;;;;;12.40;8.33;;;;;;;30.22;41.80;99760.66;1787238;80;20845;-71
2022/08/25 08:04:44;;;;;;;11.78;7.92;;;;;;;30.22;41.80;99760.66;1787438;80;21943;-71
2022/08/25 08:07:11;;;;;;;12.13;7.55;;;;;;;30.34;40.65;99760.39;1787240;80;20916;-72
2022/08/25 08:09:38;;;;;;;14.83;6.50;;;;;;;30.52;39.74;99761.33;1786957;80;20916;-69
2022/08/25 08:12:06;;;;;;;14.07;6.92;;;;;;;30.40;39.76;99758.06;1756917;80;21148;-68
2022/08/25 08:14:34;;;;;;;18.17;8.90;;;;;;;30.24;39.52;99754.16;1790067;79;20881;-71
2022/08/25 08:17:08;;;;;;;16.00;8.25;;;;;;;30.35;39.09;99753.67;1787255;80;20976;-71
2022/08/25 08:19:35;;;;;;;10.03;6.10;;;;;;;30.51;38.64;99750.05;1787261;80;20881;-70
2022/08/25 08:22:03;;;;;;;10.00;5.95;;;;;;;30.52;38.08;99758.55;1786993;80;20967;-69
2022/08/25 08:24:33;;;;;;;12.33;5.72;;;;;;;30.25;38.11;99759.91;1787065;80;21917;-71
2022/08/25 08:27:01;;;;;;;16.35;6.25;;;;;;;30.16;37.59;99755.25;1787427;80;20980;-69
2022/08/25 08:29:28;;;;;;;19.52;6.30;;;;;;;30.36;37.68;99751.72;1787271;80;20967;-67
2022/08/25 08:31:55;;;;;;;14.15;6.55;;;;;;;30.63;37.17;99759.25;1787428;80;20953;-71
2022/08/25 08:34:22;;;;;;;15.40;5.42;;;;;;;30.93;37.04;99757.09;1787283;80;20901;-70
2022/08/25 08:36:49;;;;;;;13.00;5.78;;;;;;;31.09;37.09;99755.42;1787371;80;21265;-71
2022/08/25 08:39:16;;;;;;;8.73;4.80;;;;;;;31.19;36.71;99762.20;1787601;80;21430;-67
2022/08/25 08:42:17;;;;;;;9.53;5.20;;;;;;;31.38;35.87;99753.58;1787586;80;21341;-71
2022/08/25 08:45:12;;;;;;;10.45;4.70;;;;;;;31.42;36.44;99750.05;1787462;80;21789;-69
2022/08/25 08:48:05;;;;;;;11.33;4.72;;;;;;;31.65;34.41;99753.28;1787107;80;21474;-69
2022/08/25 08:50:38;;;;;;;13.45;4.90;;;;;;;31.74;34.58;99738.45;1787322;80;21483;-68
2022/08/25 08:53:17;;;;;;;10.28;4.15;;;;;;;31.77;34.34;99738.25;1787207;80;21438;-71
2022/08/25 08:56:00;;;;;;;10.15;4.47;;;;;;;32.17;32.88;99741.33;1787249;80;20877;-71
2022/08/25 08:58:49;;;;;;;11.48;4.20;;;;;;;32.12;32.42;99743.69;1787140;80;20924;-69
2022/08/25 09:01:34;;;;;;;7.17;3.75;;;;;;;32.26;32.03;99732.59;1787536;80;20936;-69
2022/08/25 09:04:30;;;;;;;8.73;3.98;;;;;;;32.39;30.64;99742.13;1787214;80;21246;-71
2022/08/25 09:06:58;;;;;;;10.03;4.12;;;;;;;32.37;30.80;99738.95;1787261;80;20999;-68
2022/08/25 09:09:31;;;;;;;12.35;4.05;;;;;;;32.44;30.65;99735.38;1787444;80;21434;-70
2022/08/25 09:12:36;;;;;;;9.38;3.67;;;;;;;32.53;30.34;99744.12;1787588;78;20964;-70
2022/08/25 09:15:18;;;;;;;8.08;3.35;;;;;;;32.59;28.67;99732.03;1752534;82;20917;-70
2022/08/25 09:18:07;;;;;;;11.90;3.92;;;;;;;32.86;28.51;99734.55;1752422;82;21322;-70
2022/08/25 09:21:08;;;;;;;7.85;3.10;;;;;;;32.87;28.35;99731.16;1752313;82;20918;-70
2022/08/25 09:24:07;;;;;;;7.83;2.98;;;;;;;32.85;27.60;99727.98;1726752;81;21051;-71
2022/08/25 09:27:24;;;;;;;16.73;3.80;;;;;;;32.94;27.59;99728.97;1753789;81;21434;-69
2022/08/25 09:30:05;;;;;;;9.78;3.12;;;;;;;32.76;27.42;99733.98;1752539;82;20972;-69
2022/08/25 09:32:40;;;;;;;7.00;2.70;;;;;;;32.62;26.48;99728.44;1752400;82;21271;-71
2022/08/25 09:35:15;;;;;;;8.10;2.60;;;;;;;32.68;25.01;99728.22;1752289;82;20877;-70
2022/08/25 09:37:42;;;;;;;6.67;2.55;;;;;;;32.77;25.21;99726.43;1752371;82;21415;-70
2022/08/25 09:40:10;;;;;;;6.37;3.30;;;;;;;32.89;25.66;99728.18;1752367;82;20960;-75
2022/08/25 09:42:53;;;;;;;11.63;3.55;;;;;;;32.99;25.61;99725.78;1752391;81;21008;-70
2022/08/25 09:45:42;;;;;;;8.98;2.60;;;;;;;32.84;26.00;99720.25;1752609;81;21122;-71
2022/08/25 09:48:36;;;;;;;12.70;3.55;;;;;;;33.04;25.39;99715.06;1750953;81;20976;-70
2022/08/25 09:51:27;;;;;;;8.00;2.83;;;;;;;32.98;25.68;99720.03;1694106;83;20973;-71
2022/08/25 09:54:19;;;;;;;6.45;2.60;;;;;;;33.19;25.45;99713.62;1696093;83;21019;-70
2022/08/25 09:56:51;;;;;;;10.60;4.15;;;;;;;33.38;25.15;99721.48;1707250;83;21551;-71
2022/08/25 09:59:25;;;;;;;8.85;1.90;;;;;;;33.34;23.71;99730.43;1675929;83;21221;-69
2022/08/25 10:01:56;;;;;;;5.20;2.52;;;;;;;33.20;22.51;99719.39;1706496;83;20987;-71
2022/08/25 10:04:36;;;;;;;8.05;1.72;;;;;;;33.15;23.67;99722.56;1705511;83;21036;-74
2022/08/25 10:07:24;;;;;;;8.38;1.85;;;;;;;33.44;22.74;99714.31;1686482;83;20942;-68
2022/08/25 10:10:01;;;;;;;6.65;1.50;;;;;;;33.40;21.98;99714.92;1694676;83;21054;-70
2022/08/25 10:12:40;;;;;;;9.20;1.85;;;;;;;33.22;22.04;99710.02;1709824;83;21371;-69
2022/08/25 10:15:22;;;;;;;18.12;2.08;;;;;;;33.04;22.26;99711.48;1662968;84;21012;-69
2022/08/25 10:17:49;;;;;;;7.62;2.10;;;;;;;33.01;23.16;99703.33;1624337;86;21032;-69
2022/08/25 10:20:24;;;;;;;9.03;2.25;;;;;;;32.93;23.05;99695.40;1611944;87;21243;-70
2022/08/25 10:22:52;;;;;;;6.62;2.42;;;;;;;32.91;23.24;99691.66;1629281;85;21054;-70
2022/08/25 10:25:29;;;;;;;10.00;2.40;;;;;;;32.93;23.85;99692.05;1604477;87;21602;-69
2022/08/25 10:28:17;;;;;;;10.82;2.47;;;;;;;33.03;24.15;99691.84;1696524;82;20874;-69
2022/08/25 10:31:01;;;;;;;16.02;3.10;;;;;;;33.22;23.72;99691.38;1727479;83;20965;-71
2022/08/25 10:33:50;;;;;;;6.70;2.45;;;;;;;33.13;23.48;99689.61;1728322;83;20943;-70
2022/08/25 10:36:24;;;;;;;5.70;2.10;;;;;;;33.25;23.95;99680.03;1699185;84;21464;-70
2022/08/25 10:39:00;;;;;;;9.85;2.60;;;;;;;33.14;23.09;99684.23;1699250;84;21270;-70
2022/08/25 10:41:50;;;;;;;13.15;2.85;;;;;;;33.15;22.85;99689.19;1699447;84;21027;-71
2022/08/25 10:48:01;;;;;;;7.10;2.17;;;;;;;33.31;22.20;99694.48;1699122;83;20909;-70
2022/08/25 10:50:57;;;;;;;8.83;1.95;;;;;;;33.26;22.56;99677.44;1699116;84;20885;-70
2022/08/25 10:53:50;;;;;;;5.17;1.10;;;;;;;33.25;21.09;99671.69;1699357;84;21421;-72
2022/08/25 10:56:29;;;;;;;4.40;1.40;;;;;;;33.06;20.85;99677.13;1699079;84;21035;-71
2022/08/25 10:59:35;;;;;;;6.75;2.20;;;;;;;32.98;20.47;99682.50;1614450;88;20954;-70
2022/08/25 11:02:14;;;;;;;35.48;3.45;;;;;;;32.86;21.11;99677.56;1614804;88;21030;-69
2022/08/25 11:04:46;;;;;;;7.40;1.87;;;;;;;32.81;21.91;99675.80;1613878;87;20968;-71
2022/08/25 11:07:39;;;;;;;7.47;1.67;;;;;;;32.96;21.73;99674.55;1645247;86;21506;-71
2022/08/25 11:10:19;;;;;;;5.97;1.02;;;;;;;32.92;20.50;99664.64;1660333;85;21012;-71
2022/08/25 11:12:54;;;;;;;6.33;1.35;;;;;;;32.82;20.92;99660.70;1669226;83;20858;-70
2022/08/25 11:15:41;;;;;;;3.35;1.35;;;;;;;32.87;20.72;99651.34;1671554;83;20958;-67
2022/08/25 11:18:11;;;;;;;7.83;1.87;;;;;;;32.88;21.56;99650.77;1687503;83;21603;-73
2022/08/25 11:20:53;;;;;;;4.08;1.60;;;;;;;32.88;21.66;99633.48;1663848;84;21287;-68
2022/08/25 11:23:36;;;;;;;6.92;1.40;;;;;;;32.78;21.40;99652.39;1680501;84;21111;-69
2022/08/25 11:26:16;;;;;;;3.83;1.77;;;;;;;32.78;20.73;99651.00;1674166;83;20894;-67
2022/08/25 11:28:54;;;;;;;5.90;2.15;;;;;;;32.82;21.14;99644.81;1680721;83;21059;-68
2022/08/25 11:31:21;;;;;;;6.90;2.22;;;;;;;32.78;21.85;99641.84;1669469;83;20996;-69
2022/08/25 11:33:49;;;;;;;9.78;2.30;;;;;;;32.91;22.28;99639.44;1670675;82;21192;-73
2022/08/25 11:36:35;;;;;;;10.05;1.98;;;;;;;32.96;22.16;99645.37;1741337;79;20963;-71
2022/08/25 11:39:26;;;;;;;6.03;2.00;;;;;;;32.90;21.58;99638.62;1722450;83;21458;-70
2022/08/25 11:41:58;;;;;;;3.37;1.52;;;;;;;32.92;22.03;99638.23;1722415;83;20889;-68
2022/08/25 11:44:52;;;;;;;12.60;2.85;;;;;;;33.00;22.19;99632.83;1722361;83;20881;-69
2022/08/25 11:48:06;;;;;;;19.48;2.77;;;;;;;33.15;22.29;99631.61;1765173;81;21269;-70
2022/08/25 11:50:36;;;;;;;11.03;2.80;;;;;;;33.26;22.43;99639.28;1787000;80;20908;-69
2022/08/25 11:53:23;;;;;;;10.48;2.55;;;;;;;33.35;22.66;99633.89;1787060;80;20881;-69
2022/08/25 11:55:57;;;;;;;7.53;2.55;;;;;;;33.43;22.36;99639.59;1762399;80;20913;-70